首页
METAR-TAF:

METAR-TAF

机场 :

Bandar Lengeh, 伊朗

纬度: 26-35N, 经度: 054-50E, 海拔: 14米

当前天气观测

该预报发布于21分钟前的14:00 UTC
静风
温度 20°C
湿度 64%
气压 1018 hPa
能见度10公里或以上
散云层高于3000英尺
散云层高于10000英尺
多云层高于20000英尺

METAR: OIBL 291400Z 00000KT 9999 SCT030 SCT100 BKN200 20/13 Q1018

时间: 17:51 (14:21 UTC)


TAF: 丢失

超过4000个机场的气象观测和天气预报(METAR&TAF报告)。

可查询的气象台以黄色和红色小点在地图上表示。

将鼠标移到小点上方,可查看气象台名称。

然后点击查看天气观测和预报。

如需切换地图:点击带黑十字的绿色按钮放大地图;点击带横线的绿色按钮缩小地图;或者点击绿色箭头查看邻近地区的地图。


METAR-TAF: